Portada
METAR-TAF:

METAR-TAF

Aeroports :

Ulan-Udè, Rússia

latitud: 51-50N, longitud: 107-36E, altitud: 510 m

Observació

L'informe es va fer fa 25 minuts, a les 16:30 UTC
Vent 4 kt del Nord/Nord-Oest
Temperatura 19°C
Humitat 88%
Pressió 1007 hPa
Visibilitat 10 km o més
Núvols disperses a una alçada de 4600 ft, Cumulonimbus.

METAR: UIUU 171630Z 34002MPS 9999 SCT046CB 19/17 Q1007 R08/CLRD60 NOSIG RMK QFE710/0947

Hora: 00:55 (16:55 UTC)

Pronòstic

L'informe es va fer fa 2 hores i 55 minuts, a les 14:00 UTC
Pronòstic vàlid del 17 a les 15 UTC al 18 a les 15 UTC
Vent 6 kt del Est amb ràfegues de 16 kt
Visibilitat 10 km o més
Núvols disperses a una alçada de 4000 ft, Cumulonimbus.
Temporalment
l' 18 a les 02 UTC al 18 a les 13 UTC
tempesta, pluja

TAF: UIUU 171400Z 1715/1815 09003G08MPS 9999 SCT040CB TEMPO 1802/1813 -TSRA

Observacions i pronòstics meteorològics de més de 4000 aeroports (METAR i TAF).

Les estacions disponibles són els punts grocs i vermells al mapa.

Posi el ratolí al punt desitjat per veure el nom de l'estació.

Feu clic per veure les observacions i els pronòstics meteorològics.

Per canviar el mapa: feu clic els botons verds amb una creu de color negre per apropar; al botó verd amb un guió per allunyar la imatge; o en les fletxes verdes per a mapes adjacents.


METAR-TAF: